createdAt,value
2018-11-21T00:00:00.878Z,88.90
2018-11-21T00:02:30.345Z,89.10
2018-11-21T00:04:56.823Z,90.50
2018-11-21T00:07:23.261Z,90.90
2018-11-21T00:09:51.897Z,90.80
2018-11-21T00:12:18.369Z,91.50
2018-11-21T00:14:48.918Z,91.00
2018-11-21T00:20:02.496Z,90.50
2018-11-21T00:22:31.876Z,89.50
2018-11-21T00:25:00.530Z,88.80
2018-11-21T00:27:29.677Z,89.40
2018-11-21T00:29:59.100Z,88.60
2018-11-21T00:32:27.894Z,88.30
2018-11-21T00:34:54.367Z,90.10
2018-11-21T00:37:24.083Z,91.00
2018-11-21T00:39:50.531Z,90.70
2018-11-21T00:42:16.984Z,90.70
2018-11-21T00:44:45.546Z,90.50
2018-11-21T00:47:12.250Z,90.20
2018-11-21T00:49:40.941Z,90.70
2018-11-21T00:52:09.812Z,89.70
2018-11-21T00:54:37.903Z,89.40
2018-11-21T00:59:51.168Z,89.70
2018-11-21T01:02:19.623Z,89.60
2018-11-21T01:04:48.352Z,90.10
2018-11-21T01:07:17.273Z,89.30
2018-11-21T01:09:46.715Z,89.40
2018-11-21T01:12:13.382Z,90.20
2018-11-21T01:14:40.304Z,89.60
2018-11-21T01:17:06.750Z,87.70
2018-11-21T01:19:33.182Z,87.40
2018-11-21T01:21:59.613Z,86.80
2018-11-21T01:24:26.051Z,86.30
2018-11-21T01:26:52.566Z,86.30
2018-11-21T01:29:19.022Z,85.80
2018-11-21T01:34:20.367Z,85.00
2018-11-21T01:36:52.380Z,85.20
2018-11-21T01:39:18.814Z,85.80
2018-11-21T01:41:48.257Z,85.60
2018-11-21T01:44:17.935Z,87.10
2018-11-21T01:46:45.336Z,87.30
2018-11-21T01:49:12.829Z,86.50
2018-11-21T01:51:44.333Z,85.60
2018-11-21T01:54:13.276Z,85.90
2018-11-21T01:59:29.756Z,86.70
2018-11-21T02:01:56.710Z,86.10
2018-11-21T02:04:23.198Z,86.10
2018-11-21T02:06:51.843Z,86.00
2018-11-21T02:09:20.728Z,86.20
2018-11-21T02:11:51.638Z,87.20
2018-11-21T02:14:18.347Z,86.70
2018-11-21T02:16:47.246Z,87.40
2018-11-21T02:19:14.685Z,89.00
2018-11-21T02:21:42.178Z,90.50
2018-11-21T02:24:11.203Z,91.10
2018-11-21T02:26:37.668Z,91.10
2018-11-21T02:29:06.554Z,90.60
2018-11-21T02:31:33.288Z,89.70
2018-11-21T02:33:59.704Z,88.90
2018-11-21T02:36:26.124Z,90.10
2018-11-21T02:38:54.821Z,89.80
2018-11-21T02:41:23.338Z,89.90
2018-11-21T02:43:49.803Z,88.70
2018-11-21T02:46:18.837Z,87.50
2018-11-21T02:48:45.285Z,87.00
2018-11-21T02:53:58.536Z,85.80
2018-11-21T02:56:25.001Z,85.40
2018-11-21T02:58:52.413Z,86.70
2018-11-21T03:01:21.305Z,85.90
2018-11-21T03:03:47.745Z,85.40
2018-11-21T03:06:14.182Z,84.10
2018-11-21T03:08:40.638Z,84.10
2018-11-21T03:11:07.046Z,83.80
2018-11-21T03:13:33.495Z,84.10
2018-11-21T03:15:59.936Z,84.30
2018-11-21T03:18:26.374Z,83.20
2018-11-21T03:20:52.810Z,83.70
2018-11-21T03:23:19.243Z,83.70
2018-11-21T03:25:45.709Z,84.20
2018-11-21T03:28:12.144Z,85.10
2018-11-21T03:30:38.568Z,84.70
2018-11-21T03:33:07.260Z,84.20
2018-11-21T03:35:33.992Z,84.30
2018-11-21T03:38:02.652Z,83.90
2018-11-21T03:40:30.118Z,83.60
2018-11-21T03:42:58.903Z,83.80
2018-11-21T03:45:25.349Z,84.20
2018-11-21T03:47:54.028Z,84.70
2018-11-21T03:50:20.753Z,85.20
2018-11-21T03:52:49.910Z,87.60
2018-11-21T03:55:19.200Z,87.50
2018-11-21T03:57:45.877Z,87.30
2018-11-21T04:00:15.019Z,88.00
2018-11-21T04:02:41.732Z,87.60
2018-11-21T04:05:10.634Z,89.00
2018-11-21T04:07:39.632Z,88.80
2018-11-21T04:10:08.286Z,88.20
2018-11-21T04:12:35.037Z,87.30
2018-11-21T04:15:03.967Z,86.10
2018-11-21T04:17:30.385Z,86.40
2018-11-21T04:19:59.060Z,86.20
2018-11-21T04:22:31.433Z,85.90
2018-11-21T04:25:01.035Z,85.90
2018-11-21T04:27:27.487Z,84.20
2018-11-21T04:29:54.232Z,84.40
2018-11-21T04:32:23.329Z,84.10
2018-11-21T04:34:50.484Z,84.40
2018-11-21T04:37:16.935Z,84.70
2018-11-21T04:39:43.681Z,84.30
2018-11-21T04:42:13.687Z,83.80
2018-11-21T04:44:50.319Z,82.90
2018-11-21T04:47:23.731Z,82.90
2018-11-21T04:49:50.457Z,82.70
2018-11-21T04:52:19.410Z,84.30
2018-11-21T04:54:49.784Z,85.00
2018-11-21T04:57:16.544Z,85.30
2018-11-21T04:59:45.210Z,85.70
2018-11-21T05:02:20.788Z,86.30
2018-11-21T05:04:47.473Z,84.60
2018-11-21T05:07:19.542Z,84.60
2018-11-21T05:09:47.583Z,86.80
2018-11-21T05:12:15.672Z,87.50
2018-11-21T05:14:42.596Z,87.60
2018-11-21T05:17:09.284Z,87.10
2018-11-21T05:19:37.945Z,87.00
2018-11-21T05:24:52.643Z,86.50
2018-11-21T05:27:20.346Z,87.40
2018-11-21T05:32:37.771Z,85.30
2018-11-21T05:35:07.564Z,84.10
2018-11-21T05:37:35.993Z,84.70
2018-11-21T05:40:02.726Z,85.70
2018-11-21T05:42:31.003Z,85.80
2018-11-21T05:45:00.804Z,85.10
2018-11-21T05:47:28.242Z,82.90
2018-11-21T05:52:41.348Z,85.00
2018-11-21T05:55:09.501Z,84.10
2018-11-21T05:57:38.165Z,83.20
2018-11-21T06:02:55.180Z,82.60
2018-11-21T06:05:24.278Z,84.10
2018-11-21T06:10:38.864Z,84.00
2018-11-21T06:13:12.514Z,83.10
2018-11-21T06:15:39.740Z,83.90
2018-11-21T06:18:11.386Z,83.90
2018-11-21T06:20:37.855Z,84.10
2018-11-21T06:23:04.746Z,84.10
2018-11-21T06:28:20.537Z,86.60
2018-11-21T06:30:49.468Z,86.80
2018-11-21T06:36:02.473Z,88.00
2018-11-21T06:38:30.622Z,86.80
2018-11-21T06:40:59.370Z,87.40
2018-11-21T06:46:13.372Z,87.50
2018-11-21T06:48:42.286Z,86.40
2018-11-21T06:51:12.447Z,85.30
2018-11-21T06:53:43.661Z,84.90
2018-11-21T06:56:12.295Z,84.50
2018-11-21T06:58:38.725Z,85.50
2018-11-21T07:01:08.220Z,84.50
2018-11-21T07:09:07.245Z,84.10
2018-11-21T07:11:33.938Z,84.10
2018-11-21T07:14:07.297Z,85.70
2018-11-21T07:16:34.306Z,84.50
2018-11-21T07:19:01.693Z,84.50
2018-11-21T07:21:30.352Z,85.50
2018-11-21T07:23:59.563Z,85.00
2018-11-21T07:26:27.079Z,84.40
2018-11-21T07:29:00.794Z,83.70
2018-11-21T07:31:29.723Z,82.40
2018-11-21T07:34:01.015Z,82.30
2018-11-21T07:36:31.808Z,84.20
2018-11-21T07:39:02.304Z,83.90
2018-11-21T07:41:31.703Z,84.20
2018-11-21T07:43:59.693Z,84.70
2018-11-21T07:46:42.992Z,83.70
2018-11-21T07:49:12.425Z,82.30
2018-11-21T07:54:26.784Z,82.80
2018-11-21T07:56:54.469Z,81.80
2018-11-21T07:59:26.691Z,82.70
2018-11-21T08:01:58.829Z,82.10
2018-11-21T08:04:27.754Z,81.30
2018-11-21T08:06:58.135Z,81.60
2018-11-21T08:09:24.892Z,81.30
2018-11-21T08:14:38.157Z,80.80
2018-11-21T08:17:04.855Z,81.40
2018-11-21T08:19:40.407Z,81.80
2018-11-21T08:22:11.074Z,82.20
2018-11-21T08:24:39.756Z,82.60
2018-11-21T08:27:19.581Z,82.00
2018-11-21T08:29:49.186Z,82.10
2018-11-21T08:32:16.084Z,82.00
2018-11-21T08:34:47.064Z,82.40
2018-11-21T08:37:15.733Z,80.90
2018-11-21T08:39:42.851Z,81.90
2018-11-21T08:42:25.396Z,80.30
2018-11-21T08:44:59.254Z,78.90
2018-11-21T08:47:39.914Z,77.50
2018-11-21T08:50:07.107Z,78.00
2018-11-21T08:52:36.812Z,79.50
2018-11-21T08:55:08.802Z,81.30
2018-11-21T08:57:31.597Z,80.80
2018-11-21T08:59:58.156Z,80.90
2018-11-21T09:02:25.014Z,79.80
2018-11-21T09:04:52.138Z,80.10
2018-11-21T09:07:22.570Z,80.80
2018-11-21T09:09:53.491Z,79.60
2018-11-21T09:15:07.450Z,80.40
2018-11-21T09:17:38.041Z,80.10
2018-11-21T09:20:05.169Z,78.80
2018-11-21T09:22:33.438Z,77.60
2018-11-21T09:25:05.500Z,77.50
2018-11-21T09:27:34.161Z,77.40
2018-11-21T09:30:14.050Z,77.90
2018-11-21T09:32:40.716Z,78.90
2018-11-21T09:35:12.637Z,80.50
2018-11-21T09:40:12.097Z,78.60
2018-11-21T09:42:39.323Z,77.10
2018-11-21T09:45:07.941Z,78.60
2018-11-21T09:47:35.411Z,78.30
2018-11-21T09:50:02.186Z,78.70
2018-11-21T09:52:31.085Z,76.80
2018-11-21T09:54:59.732Z,77.60
2018-11-21T09:57:29.428Z,78.60
2018-11-21T09:59:58.118Z,78.00
2018-11-21T10:02:37.747Z,78.80
2018-11-21T10:05:05.942Z,79.00
2018-11-21T10:07:32.403Z,77.90
2018-11-21T10:12:54.870Z,77.30
2018-11-21T10:15:25.244Z,79.10
2018-11-21T10:17:53.933Z,81.50
2018-11-21T10:20:22.360Z,82.20
2018-11-21T10:22:57.078Z,79.90
2018-11-21T10:25:26.089Z,78.70
2018-11-21T10:27:56.258Z,78.40
2018-11-21T10:30:25.196Z,77.10
2018-11-21T10:32:53.273Z,76.80
2018-11-21T10:35:20.465Z,79.70
2018-11-21T10:37:50.499Z,80.80
2018-11-21T10:40:17.157Z,79.90
2018-11-21T10:42:45.835Z,80.40
2018-11-21T10:45:12.554Z,79.10
2018-11-21T10:47:39.347Z,78.30
2018-11-21T10:50:12.904Z,77.40
2018-11-21T10:52:40.622Z,78.20
2018-11-21T10:55:07.071Z,75.20
2018-11-21T10:57:37.227Z,76.10
2018-11-21T11:00:04.898Z,76.00
2018-11-21T11:02:31.768Z,76.10
2018-11-21T11:04:58.499Z,77.60
2018-11-21T11:07:32.096Z,77.20
2018-11-21T11:10:00.739Z,77.30
2018-11-21T11:12:28.820Z,78.40
2018-11-21T11:14:59.027Z,77.80
2018-11-21T11:17:26.177Z,78.20
2018-11-21T11:19:56.024Z,77.60
2018-11-21T11:22:25.422Z,78.70
2018-11-21T11:24:51.805Z,75.10
2018-11-21T11:27:19.554Z,75.10
2018-11-21T11:29:48.597Z,74.50
2018-11-21T11:32:19.398Z,73.00
2018-11-21T11:34:48.796Z,73.70
2018-11-21T11:37:19.541Z,71.70
2018-11-21T11:39:52.994Z,73.10
2018-11-21T11:42:21.083Z,73.80
2018-11-21T11:44:48.262Z,74.70
2018-11-21T11:47:15.500Z,76.00
2018-11-21T11:49:44.731Z,74.90
2018-11-21T11:52:13.017Z,74.70
2018-11-21T11:54:39.718Z,76.50
2018-11-21T11:57:09.936Z,77.20
2018-11-21T11:59:40.520Z,76.60
2018-11-21T12:02:13.192Z,76.70
2018-11-21T12:04:38.892Z,75.40
2018-11-21T12:07:09.079Z,75.30
2018-11-21T12:09:39.023Z,74.30
2018-11-21T12:14:52.336Z,75.30
2018-11-21T12:17:19.476Z,77.20
2018-11-21T12:19:48.654Z,77.50
2018-11-21T12:22:16.629Z,74.50
2018-11-21T12:24:47.561Z,75.60
2018-11-21T12:27:16.657Z,75.00
2018-11-21T12:29:53.717Z,73.40
2018-11-21T12:32:40.108Z,74.50
2018-11-21T12:35:09.050Z,75.80
2018-11-21T12:37:35.720Z,74.80
2018-11-21T12:40:04.779Z,75.40
2018-11-21T12:50:55.559Z,76.60
2018-11-21T12:53:24.995Z,78.50
2018-11-21T12:55:57.329Z,76.70
2018-11-21T12:58:25.907Z,74.50
2018-11-21T13:00:57.679Z,74.80
2018-11-21T13:03:26.526Z,75.80
2018-11-21T13:05:54.580Z,75.00
2018-11-21T13:08:31.985Z,75.40
2018-11-21T13:11:00.445Z,76.60
2018-11-21T13:13:29.350Z,76.80
2018-11-21T13:18:42.272Z,76.60
2018-11-21T13:21:08.954Z,76.90
2018-11-21T13:23:45.513Z,76.20
2018-11-21T13:26:12.363Z,77.10
2018-11-21T13:28:41.095Z,77.40
2018-11-21T13:31:08.829Z,77.20
2018-11-21T13:33:35.490Z,76.80
2018-11-21T13:36:04.181Z,77.20
2018-11-21T13:38:31.720Z,78.20
2018-11-21T13:41:02.115Z,78.10
2018-11-21T13:43:34.393Z,78.40
2018-11-21T13:46:01.575Z,77.60
2018-11-21T13:48:32.703Z,78.10
2018-11-21T13:50:59.420Z,79.90
2018-11-21T13:53:31.413Z,79.20
2018-11-21T13:56:05.006Z,78.30
2018-11-21T13:58:33.923Z,77.90
2018-11-21T14:01:00.616Z,78.40
2018-11-21T14:06:15.124Z,78.70
2018-11-21T14:08:41.828Z,77.90
2018-11-21T14:11:08.308Z,78.40
2018-11-21T14:13:37.480Z,79.90
2018-11-21T14:16:04.085Z,82.00
2018-11-21T14:18:41.256Z,83.70
2018-11-21T14:21:12.116Z,84.30
2018-11-21T14:23:38.781Z,83.50
2018-11-21T14:26:05.474Z,82.00
2018-11-21T14:28:36.429Z,81.10
2018-11-21T14:31:06.635Z,80.90
2018-11-21T14:36:21.635Z,80.40
2018-11-21T14:38:50.687Z,80.50
2018-11-21T14:41:19.640Z,80.50
2018-11-21T14:46:36.319Z,80.40
2018-11-21T14:49:06.771Z,79.10
2018-11-21T14:51:50.080Z,78.60
2018-11-21T14:54:19.993Z,78.60
2018-11-21T14:56:50.686Z,79.10
2018-11-21T14:59:17.355Z,80.20
2018-11-21T15:01:47.808Z,80.10
2018-11-21T15:04:16.519Z,80.20
2018-11-21T15:06:43.195Z,80.80
2018-11-21T15:09:13.395Z,81.40
2018-11-21T15:11:40.075Z,81.10
2018-11-21T15:14:08.996Z,81.90
2018-11-21T15:16:40.692Z,81.20
2018-11-21T15:19:08.883Z,81.40
2018-11-21T15:21:36.904Z,81.80
2018-11-21T15:24:11.121Z,81.40
2018-11-21T15:26:43.993Z,81.30
2018-11-21T15:29:14.439Z,81.00
2018-11-21T15:31:41.093Z,81.00
2018-11-21T15:34:08.561Z,80.20
2018-11-21T15:36:38.884Z,81.60
2018-11-21T15:39:08.166Z,82.50
2018-11-21T15:41:45.402Z,83.10
2018-11-21T15:44:27.897Z,83.30
2018-11-21T15:47:00.534Z,82.60
2018-11-21T15:49:27.195Z,82.40
2018-11-21T15:52:01.299Z,82.40
2018-11-21T15:57:08.563Z,81.70
2018-11-21T15:59:36.259Z,82.50
2018-11-21T16:02:06.254Z,82.90
2018-11-21T16:04:35.459Z,81.70
2018-11-21T16:07:11.233Z,82.20
2018-11-21T16:09:37.654Z,81.90
2018-11-21T16:12:17.735Z,81.50
2018-11-21T16:14:48.312Z,81.60
2018-11-21T16:17:15.062Z,81.60
2018-11-21T16:19:43.776Z,81.50
2018-11-21T16:24:59.260Z,82.30
2018-11-21T16:27:27.404Z,82.20
2018-11-21T16:29:54.209Z,82.10
2018-11-21T16:32:23.123Z,82.70
2018-11-21T16:34:50.741Z,82.50
2018-11-21T16:37:19.899Z,83.70
2018-11-21T16:39:48.998Z,82.40
2018-11-21T16:45:07.838Z,83.10
2018-11-21T16:47:37.050Z,84.80
2018-11-21T16:50:07.731Z,84.70
2018-11-21T16:52:36.912Z,86.10
2018-11-21T16:55:04.194Z,86.30
2018-11-21T16:57:33.098Z,87.00
2018-11-21T17:00:01.517Z,86.50
2018-11-21T17:02:28.770Z,87.30
2018-11-21T17:04:57.679Z,86.10
2018-11-21T17:07:26.374Z,85.80
2018-11-21T17:09:53.055Z,86.20
2018-11-21T17:12:21.413Z,87.10
2018-11-21T17:14:50.907Z,87.40
2018-11-21T17:17:17.810Z,86.90
2018-11-21T17:19:46.640Z,87.60
2018-11-21T17:22:14.060Z,87.70
2018-11-21T17:27:29.294Z,89.30
2018-11-21T17:29:59.802Z,87.90
2018-11-21T17:32:31.904Z,87.30
2018-11-21T17:34:58.577Z,87.50
2018-11-21T17:37:26.271Z,86.60
2018-11-21T17:39:53.139Z,86.10
2018-11-21T17:42:22.903Z,85.90
2018-11-21T17:44:53.324Z,86.40
2018-11-21T17:47:30.280Z,85.90
2018-11-21T17:49:57.041Z,86.20
2018-11-21T17:52:27.818Z,86.50
2018-11-21T17:55:04.751Z,86.60
2018-11-21T17:57:31.176Z,86.40
2018-11-21T18:00:15.999Z,87.50
2018-11-21T18:02:44.653Z,87.80
2018-11-21T18:05:11.794Z,88.10
2018-11-21T18:11:08.434Z,88.20
2018-11-21T18:16:23.920Z,86.70
2018-11-21T18:19:00.106Z,85.60
2018-11-21T18:21:26.565Z,85.70
2018-11-21T18:23:54.445Z,85.70
2018-11-21T18:26:25.136Z,86.50
2018-11-21T18:28:52.270Z,86.90
2018-11-21T18:31:21.653Z,86.30
2018-11-21T18:33:49.129Z,87.50
2018-11-21T18:39:03.116Z,87.40
2018-11-21T18:41:30.806Z,86.30
2018-11-21T18:43:58.522Z,86.20
2018-11-21T18:46:32.897Z,86.80
2018-11-21T18:49:01.127Z,87.00
2018-11-21T18:51:28.586Z,87.70
2018-11-21T18:53:58.941Z,87.50
2018-11-21T18:56:29.414Z,88.10
2018-11-21T18:58:59.641Z,87.80
2018-11-21T19:01:38.474Z,87.20
2018-11-21T19:04:06.591Z,86.50
2018-11-21T19:06:33.293Z,88.30
2018-11-21T19:09:16.379Z,88.30
2018-11-21T19:11:45.890Z,87.50
2018-11-21T19:14:26.282Z,88.70
2018-11-21T19:16:55.714Z,88.10
2018-11-21T19:19:24.766Z,87.90
2018-11-21T19:21:54.192Z,89.10
2018-11-21T19:24:20.874Z,88.80
2018-11-21T19:26:48.952Z,88.90
2018-11-21T19:29:15.417Z,87.50
2018-11-21T19:31:42.885Z,89.00
2018-11-21T19:37:00.090Z,89.10
2018-11-21T19:39:27.511Z,89.40
2018-11-21T19:41:55.747Z,90.00
2018-11-21T19:44:36.438Z,88.70
2018-11-21T19:47:05.394Z,88.60
2018-11-21T19:49:33.453Z,88.30
2018-11-21T19:51:59.884Z,87.60
2018-11-21T19:54:26.997Z,87.90
2018-11-21T19:56:54.684Z,88.60
2018-11-21T19:59:21.380Z,88.40
2018-11-21T20:01:51.935Z,88.70
2018-11-21T20:07:09.885Z,87.20
2018-11-21T20:09:37.325Z,86.90
2018-11-21T20:12:11.542Z,88.10
2018-11-21T20:14:42.668Z,87.80
2018-11-21T20:17:10.342Z,86.40
2018-11-21T20:19:38.444Z,86.20
2018-11-21T20:22:05.356Z,86.40
2018-11-21T20:24:48.444Z,86.40
2018-11-21T20:27:17.563Z,87.80
2018-11-21T20:29:46.746Z,87.70
2018-11-21T20:32:13.648Z,87.50
2018-11-21T20:34:46.989Z,86.80
2018-11-21T20:37:14.672Z,86.70
2018-11-21T20:39:48.154Z,85.70
2018-11-21T20:42:17.756Z,85.80
2018-11-21T20:44:44.946Z,86.50
2018-11-21T20:47:13.375Z,86.30
2018-11-21T20:49:49.173Z,88.20
2018-11-21T20:52:18.877Z,88.00
2018-11-21T20:54:49.772Z,88.30
2018-11-21T20:57:17.179Z,87.50
2018-11-21T20:59:44.420Z,86.90
2018-11-21T21:02:12.516Z,87.20
2018-11-21T21:04:43.239Z,86.80
2018-11-21T21:07:12.547Z,86.20
2018-11-21T21:09:40.199Z,86.20
2018-11-21T21:12:06.643Z,86.40
2018-11-21T21:14:35.319Z,85.70
2018-11-21T21:17:04.435Z,86.50
2018-11-21T21:19:32.518Z,86.50
2018-11-21T21:22:00.190Z,85.30
2018-11-21T21:24:29.119Z,85.00
2018-11-21T21:26:58.286Z,84.80
2018-11-21T21:29:26.932Z,85.50
2018-11-21T21:31:54.626Z,85.80
2018-11-21T21:34:21.265Z,86.50
2018-11-21T21:36:48.176Z,87.20
2018-11-21T21:39:15.869Z,86.30
2018-11-21T21:41:47.180Z,86.00
2018-11-21T21:44:14.352Z,86.50
2018-11-21T21:46:45.090Z,86.20
2018-11-21T21:49:16.035Z,86.90
2018-11-21T21:51:47.454Z,88.60
2018-11-21T21:54:19.193Z,87.70
2018-11-21T21:56:46.893Z,87.40
2018-11-21T21:59:18.429Z,86.90
2018-11-21T22:01:46.934Z,86.90
2018-11-21T22:04:13.595Z,86.20
2018-11-21T22:09:26.591Z,85.00
2018-11-21T22:11:53.660Z,84.90
2018-11-21T22:14:20.334Z,84.90
2018-11-21T22:16:50.221Z,85.50
2018-11-21T22:19:17.935Z,87.30
2018-11-21T22:21:45.125Z,86.40
2018-11-21T22:24:13.194Z,85.90
2018-11-21T22:26:44.604Z,86.50
2018-11-21T22:29:12.063Z,87.20
2018-11-21T22:31:41.001Z,86.50
2018-11-21T22:34:09.840Z,85.50
2018-11-21T22:36:38.508Z,85.30
2018-11-21T22:39:05.950Z,85.00
2018-11-21T22:41:34.574Z,84.10
2018-11-21T22:46:52.193Z,84.00
2018-11-21T22:49:18.659Z,85.00
2018-11-21T22:51:47.672Z,85.70
2018-11-21T22:54:13.598Z,85.30
2018-11-21T22:56:41.286Z,85.20
2018-11-21T22:59:08.001Z,85.30
2018-11-21T23:01:36.874Z,85.40
2018-11-21T23:04:07.498Z,85.80
2018-11-21T23:06:39.674Z,86.20
2018-11-21T23:11:53.993Z,86.60
2018-11-21T23:14:24.763Z,87.10
2018-11-21T23:16:54.612Z,86.60
2018-11-21T23:22:11.953Z,85.90
2018-11-21T23:24:42.353Z,86.80
2018-11-21T23:27:12.691Z,86.60
2018-11-21T23:29:40.844Z,85.80
2018-11-21T23:32:10.624Z,85.30
2018-11-21T23:34:41.578Z,84.90
2018-11-21T23:37:09.328Z,85.10
2018-11-21T23:39:38.681Z,85.40
2018-11-21T23:42:06.828Z,85.30
2018-11-21T23:44:42.856Z,85.00
2018-11-21T23:47:09.291Z,85.10
2018-11-21T23:49:39.943Z,84.50
2018-11-21T23:52:09.381Z,85.10
2018-11-21T23:54:38.343Z,86.20
2018-11-21T23:57:24.756Z,86.20
2018-11-21T23:59:52.097Z,86.50
